Vredenburgh, Alabama
Current Conditions -  °F | °C
As of 9:53 AM on Tuesday 21 Oct 2014 (Local Time) from KGZH Reporting Station
Clear Clear  
Wind Chill: 70°   Ceiling: Unl
Heat Index: 70°   Visibility: 10mi
Dew Point: 54°   Wind: 7mph
Humidity: 57%   Direction: 40°NE
Pressure: 30.07"   Gusts: NA
Location:  31.83°N, 87.32°W
Report Text: KGZH 211453Z AUTO 04006KT 10SM CLR 21/12 A3007 RMK AO2 SLP181 T02110122 51011
Loading
Personal Weather Stations






























Interactive Weather Map
Tropical Storm Tracking
New forecast layout! Learn more

10-Day Weather Forecast

Advertisements
Track Severe Weather on mobile